sensor_id;sensor_type;location;lat;lon;timestamp;P1;durP1;ratioP1;P2;durP2;ratioP2
72335;SDS011;65062;48.446;8.834;2023-08-01T00:00:12;1.25;;;0.90;;
72335;SDS011;65062;48.446;8.834;2023-08-01T00:03:13;2.65;;;0.90;;
72335;SDS011;65062;48.446;8.834;2023-08-01T00:06:13;2.67;;;1.10;;
72335;SDS011;65062;48.446;8.834;2023-08-01T00:09:13;4.03;;;1.23;;
72335;SDS011;65062;48.446;8.834;2023-08-01T00:12:14;1.73;;;0.82;;
72335;SDS011;65062;48.446;8.834;2023-08-01T00:15:14;1.95;;;1.30;;
72335;SDS011;65062;48.446;8.834;2023-08-01T00:18:15;2.22;;;0.88;;
72335;SDS011;65062;48.446;8.834;2023-08-01T00:21:15;1.98;;;0.98;;
72335;SDS011;65062;48.446;8.834;2023-08-01T00:24:15;2.05;;;0.80;;
72335;SDS011;65062;48.446;8.834;2023-08-01T00:27:16;2.47;;;0.88;;
72335;SDS011;65062;48.446;8.834;2023-08-01T00:30:16;1.77;;;0.80;;
72335;SDS011;65062;48.446;8.834;2023-08-01T00:33:17;2.95;;;1.23;;
72335;SDS011;65062;48.446;8.834;2023-08-01T00:36:17;3.13;;;1.55;;
72335;SDS011;65062;48.446;8.834;2023-08-01T00:39:17;1.95;;;0.80;;
72335;SDS011;65062;48.446;8.834;2023-08-01T00:42:18;2.40;;;1.00;;
72335;SDS011;65062;48.446;8.834;2023-08-01T00:45:18;3.33;;;1.45;;
72335;SDS011;65062;48.446;8.834;2023-08-01T00:48:18;3.55;;;1.30;;
72335;SDS011;65062;48.446;8.834;2023-08-01T00:51:19;1.70;;;0.80;;
72335;SDS011;65062;48.446;8.834;2023-08-01T00:54:20;2.63;;;1.08;;
72335;SDS011;65062;48.446;8.834;2023-08-01T00:57:20;1.90;;;1.20;;
72335;SDS011;65062;48.446;8.834;2023-08-01T01:00:21;2.50;;;1.25;;
72335;SDS011;65062;48.446;8.834;2023-08-01T01:03:21;6.15;;;1.20;;
72335;SDS011;65062;48.446;8.834;2023-08-01T01:06:33;2.45;;;1.00;;
72335;SDS011;65062;48.446;8.834;2023-08-01T01:09:41;1.48;;;1.00;;
72335;SDS011;65062;48.446;8.834;2023-08-01T01:15:42;1.77;;;0.87;;
72335;SDS011;65062;48.446;8.834;2023-08-01T01:18:42;2.08;;;0.88;;
72335;SDS011;65062;48.446;8.834;2023-08-01T01:21:42;2.22;;;1.15;;
72335;SDS011;65062;48.446;8.834;2023-08-01T01:24:44;1.67;;;0.82;;
72335;SDS011;65062;48.446;8.834;2023-08-01T01:27:46;2.55;;;1.35;;
72335;SDS011;65062;48.446;8.834;2023-08-01T01:30:49;3.10;;;1.10;;
72335;SDS011;65062;48.446;8.834;2023-08-01T01:33:51;1.92;;;1.15;;
72335;SDS011;65062;48.446;8.834;2023-08-01T01:36:52;1.23;;;0.63;;
72335;SDS011;65062;48.446;8.834;2023-08-01T01:39:52;1.85;;;0.80;;
72335;SDS011;65062;48.446;8.834;2023-08-01T01:42:52;3.97;;;1.02;;
72335;SDS011;65062;48.446;8.834;2023-08-01T01:45:53;2.47;;;1.10;;
72335;SDS011;65062;48.446;8.834;2023-08-01T01:48:53;2.40;;;1.30;;
72335;SDS011;65062;48.446;8.834;2023-08-01T01:51:53;2.05;;;1.27;;
72335;SDS011;65062;48.446;8.834;2023-08-01T01:54:54;1.92;;;1.02;;
72335;SDS011;65062;48.446;8.834;2023-08-01T01:57:54;3.10;;;0.90;;
72335;SDS011;65062;48.446;8.834;2023-08-01T02:00:54;1.95;;;1.20;;
72335;SDS011;65062;48.446;8.834;2023-08-01T02:03:55;1.98;;;1.10;;
72335;SDS011;65062;48.446;8.834;2023-08-01T02:06:55;1.80;;;1.25;;
72335;SDS011;65062;48.446;8.834;2023-08-01T02:09:55;3.42;;;0.93;;
72335;SDS011;65062;48.446;8.834;2023-08-01T02:12:56;1.58;;;0.90;;
72335;SDS011;65062;48.446;8.834;2023-08-01T02:15:56;1.77;;;0.85;;
72335;SDS011;65062;48.446;8.834;2023-08-01T02:18:56;2.83;;;1.02;;
72335;SDS011;65062;48.446;8.834;2023-08-01T02:21:57;1.38;;;0.80;;
72335;SDS011;65062;48.446;8.834;2023-08-01T02:24:58;1.75;;;0.98;;
72335;SDS011;65062;48.446;8.834;2023-08-01T02:27:58;2.17;;;0.90;;
72335;SDS011;65062;48.446;8.834;2023-08-01T02:30:58;3.30;;;1.35;;
72335;SDS011;65062;48.446;8.834;2023-08-01T02:33:59;2.75;;;1.00;;
72335;SDS011;65062;48.446;8.834;2023-08-01T02:36:59;2.20;;;0.75;;
72335;SDS011;65062;48.446;8.834;2023-08-01T02:40:01;3.15;;;0.88;;
72335;SDS011;65062;48.446;8.834;2023-08-01T02:46:07;3.20;;;0.80;;
72335;SDS011;65062;48.446;8.834;2023-08-01T02:49:07;3.20;;;0.88;;
72335;SDS011;65062;48.446;8.834;2023-08-01T02:52:08;2.05;;;0.98;;
72335;SDS011;65062;48.446;8.834;2023-08-01T02:55:08;1.45;;;0.80;;
72335;SDS011;65062;48.446;8.834;2023-08-01T02:58:08;1.77;;;0.82;;
72335;SDS011;65062;48.446;8.834;2023-08-01T03:01:09;4.25;;;1.75;;
72335;SDS011;65062;48.446;8.834;2023-08-01T03:04:10;3.50;;;1.23;;
72335;SDS011;65062;48.446;8.834;2023-08-01T03:07:11;3.33;;;1.42;;
72335;SDS011;65062;48.446;8.834;2023-08-01T03:10:12;2.63;;;1.00;;
72335;SDS011;65062;48.446;8.834;2023-08-01T03:13:12;2.58;;;1.08;;
72335;SDS011;65062;48.446;8.834;2023-08-01T03:16:12;13.85;;;5.88;;
72335;SDS011;65062;48.446;8.834;2023-08-01T03:19:13;4.88;;;2.00;;
72335;SDS011;65062;48.446;8.834;2023-08-01T03:22:13;2.17;;;1.38;;
72335;SDS011;65062;48.446;8.834;2023-08-01T03:25:14;1.90;;;0.70;;
72335;SDS011;65062;48.446;8.834;2023-08-01T03:28:14;1.50;;;0.90;;
72335;SDS011;65062;48.446;8.834;2023-08-01T03:31:15;2.20;;;0.77;;
72335;SDS011;65062;48.446;8.834;2023-08-01T03:34:15;1.60;;;1.05;;
72335;SDS011;65062;48.446;8.834;2023-08-01T03:37:16;1.77;;;0.85;;
72335;SDS011;65062;48.446;8.834;2023-08-01T03:40:18;1.67;;;0.82;;
72335;SDS011;65062;48.446;8.834;2023-08-01T03:43:19;2.35;;;0.95;;
72335;SDS011;65062;48.446;8.834;2023-08-01T03:46:23;2.80;;;0.75;;
72335;SDS011;65062;48.446;8.834;2023-08-01T03:49:23;1.67;;;0.80;;
72335;SDS011;65062;48.446;8.834;2023-08-01T03:52:24;3.53;;;1.20;;
72335;SDS011;65062;48.446;8.834;2023-08-01T03:55:24;2.95;;;1.15;;
72335;SDS011;65062;48.446;8.834;2023-08-01T03:58:25;2.67;;;1.10;;
72335;SDS011;65062;48.446;8.834;2023-08-01T04:01:25;1.95;;;1.02;;
72335;SDS011;65062;48.446;8.834;2023-08-01T04:04:26;2.50;;;0.90;;
72335;SDS011;65062;48.446;8.834;2023-08-01T04:07:26;2.28;;;0.90;;
72335;SDS011;65062;48.446;8.834;2023-08-01T04:10:27;1.85;;;0.98;;
72335;SDS011;65062;48.446;8.834;2023-08-01T04:13:27;1.85;;;1.30;;
72335;SDS011;65062;48.446;8.834;2023-08-01T04:16:27;1.70;;;1.10;;
72335;SDS011;65062;48.446;8.834;2023-08-01T04:19:28;2.42;;;1.30;;
72335;SDS011;65062;48.446;8.834;2023-08-01T04:22:28;2.08;;;0.98;;
72335;SDS011;65062;48.446;8.834;2023-08-01T04:25:28;2.05;;;1.05;;
72335;SDS011;65062;48.446;8.834;2023-08-01T04:28:29;1.63;;;1.00;;
72335;SDS011;65062;48.446;8.834;2023-08-01T04:31:29;3.07;;;1.33;;
72335;SDS011;65062;48.446;8.834;2023-08-01T04:34:29;1.80;;;0.65;;
72335;SDS011;65062;48.446;8.834;2023-08-01T04:37:30;3.00;;;1.08;;
72335;SDS011;65062;48.446;8.834;2023-08-01T04:40:30;3.45;;;1.08;;
72335;SDS011;65062;48.446;8.834;2023-08-01T04:43:30;1.80;;;0.80;;
72335;SDS011;65062;48.446;8.834;2023-08-01T04:46:31;3.30;;;1.00;;
72335;SDS011;65062;48.446;8.834;2023-08-01T04:49:31;3.47;;;0.90;;
72335;SDS011;65062;48.446;8.834;2023-08-01T04:52:31;2.15;;;0.85;;
72335;SDS011;65062;48.446;8.834;2023-08-01T04:55:32;3.60;;;1.38;;
72335;SDS011;65062;48.446;8.834;2023-08-01T04:58:32;3.83;;;1.10;;
72335;SDS011;65062;48.446;8.834;2023-08-01T05:01:33;1.92;;;0.77;;
72335;SDS011;65062;48.446;8.834;2023-08-01T05:04:33;2.10;;;0.70;;
72335;SDS011;65062;48.446;8.834;2023-08-01T05:07:34;2.33;;;1.38;;
72335;SDS011;65062;48.446;8.834;2023-08-01T05:10:34;3.08;;;1.15;;
72335;SDS011;65062;48.446;8.834;2023-08-01T05:13:34;2.30;;;1.00;;
72335;SDS011;65062;48.446;8.834;2023-08-01T05:16:35;3.70;;;0.80;;
72335;SDS011;65062;48.446;8.834;2023-08-01T05:19:35;4.72;;;1.42;;
72335;SDS011;65062;48.446;8.834;2023-08-01T05:22:35;3.30;;;1.00;;
72335;SDS011;65062;48.446;8.834;2023-08-01T05:25:36;1.38;;;0.43;;
72335;SDS011;65062;48.446;8.834;2023-08-01T05:28:36;0.93;;;0.55;;
72335;SDS011;65062;48.446;8.834;2023-08-01T05:31:36;1.38;;;0.60;;
72335;SDS011;65062;48.446;8.834;2023-08-01T05:34:37;1.25;;;0.85;;
72335;SDS011;65062;48.446;8.834;2023-08-01T05:37:37;1.77;;;1.02;;
72335;SDS011;65062;48.446;8.834;2023-08-01T05:40:37;1.98;;;0.70;;
72335;SDS011;65062;48.446;8.834;2023-08-01T05:43:39;1.98;;;0.80;;
72335;SDS011;65062;48.446;8.834;2023-08-01T05:46:40;1.58;;;0.95;;
72335;SDS011;65062;48.446;8.834;2023-08-01T05:49:40;5.15;;;0.80;;
72335;SDS011;65062;48.446;8.834;2023-08-01T05:52:41;1.25;;;0.63;;
72335;SDS011;65062;48.446;8.834;2023-08-01T05:55:41;1.73;;;0.80;;
72335;SDS011;65062;48.446;8.834;2023-08-01T05:58:42;2.35;;;0.70;;
72335;SDS011;65062;48.446;8.834;2023-08-01T06:01:42;2.72;;;1.00;;
72335;SDS011;65062;48.446;8.834;2023-08-01T06:04:43;2.90;;;1.08;;
72335;SDS011;65062;48.446;8.834;2023-08-01T06:07:43;2.40;;;0.93;;
72335;SDS011;65062;48.446;8.834;2023-08-01T06:10:44;1.88;;;1.13;;
72335;SDS011;65062;48.446;8.834;2023-08-01T06:13:44;2.55;;;1.20;;
72335;SDS011;65062;48.446;8.834;2023-08-01T06:16:45;2.65;;;1.60;;
72335;SDS011;65062;48.446;8.834;2023-08-01T06:19:45;2.83;;;1.38;;
72335;SDS011;65062;48.446;8.834;2023-08-01T06:22:45;2.92;;;1.23;;
72335;SDS011;65062;48.446;8.834;2023-08-01T06:25:46;3.10;;;1.13;;
72335;SDS011;65062;48.446;8.834;2023-08-01T06:28:46;2.35;;;0.98;;
72335;SDS011;65062;48.446;8.834;2023-08-01T06:31:46;3.03;;;1.42;;
72335;SDS011;65062;48.446;8.834;2023-08-01T06:34:47;3.97;;;1.20;;
72335;SDS011;65062;48.446;8.834;2023-08-01T06:37:47;2.75;;;1.20;;
72335;SDS011;65062;48.446;8.834;2023-08-01T06:40:47;4.95;;;1.20;;
72335;SDS011;65062;48.446;8.834;2023-08-01T06:46:48;3.37;;;1.40;;
72335;SDS011;65062;48.446;8.834;2023-08-01T06:49:48;2.53;;;1.20;;
72335;SDS011;65062;48.446;8.834;2023-08-01T06:52:49;2.90;;;1.52;;
72335;SDS011;65062;48.446;8.834;2023-08-01T06:55:49;2.78;;;1.30;;
72335;SDS011;65062;48.446;8.834;2023-08-01T06:58:49;2.45;;;1.15;;
72335;SDS011;65062;48.446;8.834;2023-08-01T07:01:50;3.10;;;1.23;;
72335;SDS011;65062;48.446;8.834;2023-08-01T07:04:50;4.22;;;1.60;;
72335;SDS011;65062;48.446;8.834;2023-08-01T07:07:51;6.20;;;1.77;;
72335;SDS011;65062;48.446;8.834;2023-08-01T07:10:51;3.78;;;1.35;;
72335;SDS011;65062;48.446;8.834;2023-08-01T07:13:51;2.38;;;0.60;;
72335;SDS011;65062;48.446;8.834;2023-08-01T07:16:52;2.20;;;0.80;;
72335;SDS011;65062;48.446;8.834;2023-08-01T07:19:52;2.47;;;1.20;;
72335;SDS011;65062;48.446;8.834;2023-08-01T07:22:54;2.90;;;1.17;;
72335;SDS011;65062;48.446;8.834;2023-08-01T07:25:55;4.57;;;1.52;;
72335;SDS011;65062;48.446;8.834;2023-08-01T07:28:55;4.07;;;0.95;;
72335;SDS011;65062;48.446;8.834;2023-08-01T07:31:55;3.03;;;1.20;;
72335;SDS011;65062;48.446;8.834;2023-08-01T07:34:56;3.38;;;1.20;;
72335;SDS011;65062;48.446;8.834;2023-08-01T07:37:56;2.72;;;0.93;;
72335;SDS011;65062;48.446;8.834;2023-08-01T07:40:56;2.58;;;1.02;;
72335;SDS011;65062;48.446;8.834;2023-08-01T07:43:57;5.72;;;1.10;;
72335;SDS011;65062;48.446;8.834;2023-08-01T07:46:57;2.60;;;0.98;;
72335;SDS011;65062;48.446;8.834;2023-08-01T07:49:58;1.48;;;0.80;;
72335;SDS011;65062;48.446;8.834;2023-08-01T07:52:58;2.37;;;0.90;;
72335;SDS011;65062;48.446;8.834;2023-08-01T07:55:58;1.92;;;0.93;;
72335;SDS011;65062;48.446;8.834;2023-08-01T07:58:59;2.40;;;0.73;;
72335;SDS011;65062;48.446;8.834;2023-08-01T08:02:00;2.47;;;0.90;;
72335;SDS011;65062;48.446;8.834;2023-08-01T08:05:00;0.82;;;0.43;;
72335;SDS011;65062;48.446;8.834;2023-08-01T08:08:00;1.50;;;1.00;;
72335;SDS011;65062;48.446;8.834;2023-08-01T08:11:01;1.77;;;0.82;;
72335;SDS011;65062;48.446;8.834;2023-08-01T08:14:01;2.33;;;1.00;;
72335;SDS011;65062;48.446;8.834;2023-08-01T08:17:02;2.22;;;0.80;;
72335;SDS011;65062;48.446;8.834;2023-08-01T08:20:02;1.58;;;0.65;;
72335;SDS011;65062;48.446;8.834;2023-08-01T08:23:03;0.80;;;0.47;;
72335;SDS011;65062;48.446;8.834;2023-08-01T08:26:03;1.38;;;0.85;;
72335;SDS011;65062;48.446;8.834;2023-08-01T08:29:04;1.55;;;0.63;;
72335;SDS011;65062;48.446;8.834;2023-08-01T08:32:05;2.58;;;0.50;;
72335;SDS011;65062;48.446;8.834;2023-08-01T08:35:06;2.53;;;0.68;;
72335;SDS011;65062;48.446;8.834;2023-08-01T08:38:06;1.35;;;0.60;;
72335;SDS011;65062;48.446;8.834;2023-08-01T08:41:11;1.58;;;0.60;;
72335;SDS011;65062;48.446;8.834;2023-08-01T08:44:14;1.13;;;0.60;;
72335;SDS011;65062;48.446;8.834;2023-08-01T08:47:20;1.70;;;0.82;;
72335;SDS011;65062;48.446;8.834;2023-08-01T08:50:25;2.67;;;0.60;;
72335;SDS011;65062;48.446;8.834;2023-08-01T08:53:26;2.00;;;0.65;;
72335;SDS011;65062;48.446;8.834;2023-08-01T08:56:28;0.75;;;0.50;;
72335;SDS011;65062;48.446;8.834;2023-08-01T08:59:29;0.60;;;0.45;;
72335;SDS011;65062;48.446;8.834;2023-08-01T09:02:30;0.30;;;0.30;;
72335;SDS011;65062;48.446;8.834;2023-08-01T09:05:34;3.42;;;0.50;;
72335;SDS011;65062;48.446;8.834;2023-08-01T09:08:47;0.65;;;0.32;;
72335;SDS011;65062;48.446;8.834;2023-08-01T09:11:52;3.88;;;0.50;;
72335;SDS011;65062;48.446;8.834;2023-08-01T09:14:53;0.73;;;0.50;;
72335;SDS011;65062;48.446;8.834;2023-08-01T09:17:56;0.60;;;0.28;;
72335;SDS011;65062;48.446;8.834;2023-08-01T09:21:00;1.10;;;0.20;;
72335;SDS011;65062;48.446;8.834;2023-08-01T09:24:07;0.43;;;0.30;;
72335;SDS011;65062;48.446;8.834;2023-08-01T09:27:12;1.13;;;0.40;;
72335;SDS011;65062;48.446;8.834;2023-08-01T09:30:13;0.43;;;0.27;;
72335;SDS011;65062;48.446;8.834;2023-08-01T09:33:16;0.80;;;0.40;;
72335;SDS011;65062;48.446;8.834;2023-08-01T09:36:22;1.38;;;0.40;;
72335;SDS011;65062;48.446;8.834;2023-08-01T09:39:23;0.47;;;0.17;;
72335;SDS011;65062;48.446;8.834;2023-08-01T09:42:23;0.77;;;0.40;;
72335;SDS011;65062;48.446;8.834;2023-08-01T09:45:23;0.52;;;0.20;;
72335;SDS011;65062;48.446;8.834;2023-08-01T09:48:24;1.20;;;0.20;;
72335;SDS011;65062;48.446;8.834;2023-08-01T09:51:26;0.20;;;0.20;;
72335;SDS011;65062;48.446;8.834;2023-08-01T09:54:27;0.60;;;0.25;;
72335;SDS011;65062;48.446;8.834;2023-08-01T09:57:28;0.82;;;0.30;;
72335;SDS011;65062;48.446;8.834;2023-08-01T10:00:29;0.95;;;0.30;;
72335;SDS011;65062;48.446;8.834;2023-08-01T10:03:30;0.20;;;0.10;;
72335;SDS011;65062;48.446;8.834;2023-08-01T10:06:32;0.43;;;0.17;;
72335;SDS011;65062;48.446;8.834;2023-08-01T10:09:34;1.48;;;0.40;;
72335;SDS011;65062;48.446;8.834;2023-08-01T10:12:36;0.57;;;0.38;;
72335;SDS011;65062;48.446;8.834;2023-08-01T10:15:38;1.48;;;0.20;;
72335;SDS011;65062;48.446;8.834;2023-08-01T10:18:39;0.15;;;0.10;;
72335;SDS011;65062;48.446;8.834;2023-08-01T10:21:43;0.38;;;0.22;;
72335;SDS011;65062;48.446;8.834;2023-08-01T10:24:44;0.30;;;0.20;;
72335;SDS011;65062;48.446;8.834;2023-08-01T10:27:56;1.08;;;0.30;;
72335;SDS011;65062;48.446;8.834;2023-08-01T10:31:11;0.17;;;0.10;;
72335;SDS011;65062;48.446;8.834;2023-08-01T10:34:16;0.35;;;0.17;;
72335;SDS011;65062;48.446;8.834;2023-08-01T10:37:16;0.10;;;0.08;;
72335;SDS011;65062;48.446;8.834;2023-08-01T10:40:17;0.35;;;0.10;;
72335;SDS011;65062;48.446;8.834;2023-08-01T10:43:21;0.15;;;0.10;;
72335;SDS011;65062;48.446;8.834;2023-08-01T10:46:22;0.80;;;0.10;;
72335;SDS011;65062;48.446;8.834;2023-08-01T10:52:45;0.85;;;0.10;;
72335;SDS011;65062;48.446;8.834;2023-08-01T10:55:46;0.20;;;0.10;;
72335;SDS011;65062;48.446;8.834;2023-08-01T10:58:47;0.47;;;0.10;;
72335;SDS011;65062;48.446;8.834;2023-08-01T11:01:48;0.50;;;0.40;;
72335;SDS011;65062;48.446;8.834;2023-08-01T11:04:59;0.10;;;0.10;;
72335;SDS011;65062;48.446;8.834;2023-08-01T11:08:02;1.38;;;0.10;;
72335;SDS011;65062;48.446;8.834;2023-08-01T11:11:04;0.85;;;0.22;;
72335;SDS011;65062;48.446;8.834;2023-08-01T11:14:08;0.20;;;0.20;;
72335;SDS011;65062;48.446;8.834;2023-08-01T11:17:08;0.38;;;0.20;;
72335;SDS011;65062;48.446;8.834;2023-08-01T11:20:09;0.38;;;0.20;;
72335;SDS011;65062;48.446;8.834;2023-08-01T11:23:11;0.30;;;0.10;;
72335;SDS011;65062;48.446;8.834;2023-08-01T11:26:11;0.82;;;0.20;;
72335;SDS011;65062;48.446;8.834;2023-08-01T11:29:12;0.52;;;0.32;;
72335;SDS011;65062;48.446;8.834;2023-08-01T11:32:13;0.65;;;0.35;;
72335;SDS011;65062;48.446;8.834;2023-08-01T11:35:17;2.15;;;0.20;;
72335;SDS011;65062;48.446;8.834;2023-08-01T11:38:19;0.47;;;0.30;;
72335;SDS011;65062;48.446;8.834;2023-08-01T11:41:21;0.90;;;0.30;;
72335;SDS011;65062;48.446;8.834;2023-08-01T11:47:23;0.20;;;0.20;;
72335;SDS011;65062;48.446;8.834;2023-08-01T11:50:24;0.52;;;0.30;;
72335;SDS011;65062;48.446;8.834;2023-08-01T11:53:26;1.17;;;0.22;;
72335;SDS011;65062;48.446;8.834;2023-08-01T11:56:28;0.43;;;0.30;;
72335;SDS011;65062;48.446;8.834;2023-08-01T11:59:28;1.45;;;0.30;;
72335;SDS011;65062;48.446;8.834;2023-08-01T12:05:32;0.50;;;0.30;;
72335;SDS011;65062;48.446;8.834;2023-08-01T12:08:33;0.30;;;0.25;;
72335;SDS011;65062;48.446;8.834;2023-08-01T12:11:34;0.25;;;0.20;;
72335;SDS011;65062;48.446;8.834;2023-08-01T12:14:41;0.47;;;0.40;;
72335;SDS011;65062;48.446;8.834;2023-08-01T12:17:42;0.65;;;0.40;;
72335;SDS011;65062;48.446;8.834;2023-08-01T12:20:42;1.30;;;0.47;;
72335;SDS011;65062;48.446;8.834;2023-08-01T12:23:42;1.58;;;0.50;;
72335;SDS011;65062;48.446;8.834;2023-08-01T12:29:43;0.60;;;0.30;;
72335;SDS011;65062;48.446;8.834;2023-08-01T12:32:43;0.30;;;0.20;;
72335;SDS011;65062;48.446;8.834;2023-08-01T12:35:44;0.30;;;0.20;;
72335;SDS011;65062;48.446;8.834;2023-08-01T12:38:44;0.93;;;0.30;;
72335;SDS011;65062;48.446;8.834;2023-08-01T12:41:45;0.32;;;0.20;;
72335;SDS011;65062;48.446;8.834;2023-08-01T12:44:45;0.47;;;0.30;;
72335;SDS011;65062;48.446;8.834;2023-08-01T12:47:45;0.20;;;0.13;;
72335;SDS011;65062;48.446;8.834;2023-08-01T12:50:46;0.52;;;0.30;;
72335;SDS011;65062;48.446;8.834;2023-08-01T12:53:46;0.47;;;0.20;;
72335;SDS011;65062;48.446;8.834;2023-08-01T12:56:47;0.30;;;0.20;;
72335;SDS011;65062;48.446;8.834;2023-08-01T12:59:47;0.38;;;0.30;;
72335;SDS011;65062;48.446;8.834;2023-08-01T13:02:48;0.43;;;0.25;;
72335;SDS011;65062;48.446;8.834;2023-08-01T13:05:49;0.60;;;0.40;;
72335;SDS011;65062;48.446;8.834;2023-08-01T13:08:49;0.90;;;0.40;;
72335;SDS011;65062;48.446;8.834;2023-08-01T13:11:50;2.10;;;0.50;;
72335;SDS011;65062;48.446;8.834;2023-08-01T13:14:50;0.68;;;0.40;;
72335;SDS011;65062;48.446;8.834;2023-08-01T13:17:51;0.57;;;0.40;;
72335;SDS011;65062;48.446;8.834;2023-08-01T13:20:51;0.35;;;0.22;;
72335;SDS011;65062;48.446;8.834;2023-08-01T13:23:51;0.40;;;0.30;;
72335;SDS011;65062;48.446;8.834;2023-08-01T13:26:52;0.60;;;0.40;;
72335;SDS011;65062;48.446;8.834;2023-08-01T13:32:54;0.30;;;0.22;;
72335;SDS011;65062;48.446;8.834;2023-08-01T13:35:54;0.40;;;0.35;;
72335;SDS011;65062;48.446;8.834;2023-08-01T13:41:55;3.70;;;0.37;;
72335;SDS011;65062;48.446;8.834;2023-08-01T13:44:56;0.52;;;0.28;;
72335;SDS011;65062;48.446;8.834;2023-08-01T13:47:56;0.40;;;0.20;;
72335;SDS011;65062;48.446;8.834;2023-08-01T13:50:57;0.15;;;0.15;;
72335;SDS011;65062;48.446;8.834;2023-08-01T13:53:58;1.27;;;0.40;;
72335;SDS011;65062;48.446;8.834;2023-08-01T13:56:59;2.38;;;0.20;;
72335;SDS011;65062;48.446;8.834;2023-08-01T14:00:00;0.35;;;0.20;;
72335;SDS011;65062;48.446;8.834;2023-08-01T14:03:00;1.10;;;0.70;;
72335;SDS011;65062;48.446;8.834;2023-08-01T14:06:13;0.60;;;0.30;;
72335;SDS011;65062;48.446;8.834;2023-08-01T14:09:14;0.63;;;0.30;;
72335;SDS011;65062;48.446;8.834;2023-08-01T14:12:15;0.50;;;0.40;;
72335;SDS011;65062;48.446;8.834;2023-08-01T14:15:19;0.85;;;0.22;;
72335;SDS011;65062;48.446;8.834;2023-08-01T14:18:19;0.43;;;0.30;;
72335;SDS011;65062;48.446;8.834;2023-08-01T14:21:20;0.43;;;0.20;;
72335;SDS011;65062;48.446;8.834;2023-08-01T14:24:20;0.47;;;0.43;;
72335;SDS011;65062;48.446;8.834;2023-08-01T14:27:21;0.52;;;0.32;;
72335;SDS011;65062;48.446;8.834;2023-08-01T14:30:21;0.30;;;0.20;;
72335;SDS011;65062;48.446;8.834;2023-08-01T14:33:22;0.40;;;0.30;;
72335;SDS011;65062;48.446;8.834;2023-08-01T14:36:22;0.30;;;0.30;;
72335;SDS011;65062;48.446;8.834;2023-08-01T14:39:22;0.20;;;0.20;;
72335;SDS011;65062;48.446;8.834;2023-08-01T14:42:23;0.38;;;0.20;;
72335;SDS011;65062;48.446;8.834;2023-08-01T14:45:23;0.90;;;0.30;;
72335;SDS011;65062;48.446;8.834;2023-08-01T14:48:24;0.30;;;0.20;;
72335;SDS011;65062;48.446;8.834;2023-08-01T14:51:24;0.55;;;0.22;;
72335;SDS011;65062;48.446;8.834;2023-08-01T14:54:24;0.70;;;0.40;;
72335;SDS011;65062;48.446;8.834;2023-08-01T14:57:26;0.75;;;0.32;;
72335;SDS011;65062;48.446;8.834;2023-08-01T15:00:26;0.50;;;0.40;;
72335;SDS011;65062;48.446;8.834;2023-08-01T15:03:26;0.93;;;0.30;;
72335;SDS011;65062;48.446;8.834;2023-08-01T15:06:27;0.88;;;0.30;;
72335;SDS011;65062;48.446;8.834;2023-08-01T15:09:27;0.50;;;0.40;;
72335;SDS011;65062;48.446;8.834;2023-08-01T15:12:27;0.60;;;0.40;;
72335;SDS011;65062;48.446;8.834;2023-08-01T15:15:28;0.28;;;0.20;;
72335;SDS011;65062;48.446;8.834;2023-08-01T15:18:28;0.80;;;0.30;;
72335;SDS011;65062;48.446;8.834;2023-08-01T15:21:29;0.38;;;0.30;;
72335;SDS011;65062;48.446;8.834;2023-08-01T15:24:29;1.05;;;0.30;;
72335;SDS011;65062;48.446;8.834;2023-08-01T15:27:31;0.60;;;0.30;;
72335;SDS011;65062;48.446;8.834;2023-08-01T15:33:32;0.50;;;0.30;;
72335;SDS011;65062;48.446;8.834;2023-08-01T15:36:33;0.38;;;0.30;;
72335;SDS011;65062;48.446;8.834;2023-08-01T15:42:34;1.50;;;0.50;;
72335;SDS011;65062;48.446;8.834;2023-08-01T15:45:34;0.30;;;0.20;;
72335;SDS011;65062;48.446;8.834;2023-08-01T15:48:35;0.40;;;0.30;;
72335;SDS011;65062;48.446;8.834;2023-08-01T15:51:36;0.40;;;0.40;;
72335;SDS011;65062;48.446;8.834;2023-08-01T15:54:37;0.30;;;0.20;;
72335;SDS011;65062;48.446;8.834;2023-08-01T15:57:37;0.40;;;0.40;;
72335;SDS011;65062;48.446;8.834;2023-08-01T16:00:38;0.60;;;0.60;;
72335;SDS011;65062;48.446;8.834;2023-08-01T16:03:39;0.30;;;0.22;;
72335;SDS011;65062;48.446;8.834;2023-08-01T16:06:43;0.68;;;0.30;;
72335;SDS011;65062;48.446;8.834;2023-08-01T16:09:44;0.75;;;0.20;;
72335;SDS011;65062;48.446;8.834;2023-08-01T16:12:44;1.52;;;0.30;;
72335;SDS011;65062;48.446;8.834;2023-08-01T16:15:44;0.40;;;0.30;;
72335;SDS011;65062;48.446;8.834;2023-08-01T16:18:45;0.47;;;0.32;;
72335;SDS011;65062;48.446;8.834;2023-08-01T16:21:45;0.75;;;0.30;;
72335;SDS011;65062;48.446;8.834;2023-08-01T16:24:46;0.82;;;0.35;;
72335;SDS011;65062;48.446;8.834;2023-08-01T16:27:46;0.47;;;0.30;;
72335;SDS011;65062;48.446;8.834;2023-08-01T16:30:48;0.50;;;0.38;;
72335;SDS011;65062;48.446;8.834;2023-08-01T16:33:49;0.70;;;0.50;;
72335;SDS011;65062;48.446;8.834;2023-08-01T16:39:49;0.30;;;0.30;;
72335;SDS011;65062;48.446;8.834;2023-08-01T16:42:50;0.90;;;0.40;;
72335;SDS011;65062;48.446;8.834;2023-08-01T16:45:50;0.57;;;0.50;;
72335;SDS011;65062;48.446;8.834;2023-08-01T16:48:50;0.47;;;0.30;;
72335;SDS011;65062;48.446;8.834;2023-08-01T16:51:51;0.70;;;0.40;;
72335;SDS011;65062;48.446;8.834;2023-08-01T16:54:52;1.08;;;0.50;;
72335;SDS011;65062;48.446;8.834;2023-08-01T16:57:52;1.40;;;0.25;;
72335;SDS011;65062;48.446;8.834;2023-08-01T17:00:52;0.40;;;0.30;;
72335;SDS011;65062;48.446;8.834;2023-08-01T17:03:54;0.70;;;0.40;;
72335;SDS011;65062;48.446;8.834;2023-08-01T17:06:55;1.20;;;0.50;;
72335;SDS011;65062;48.446;8.834;2023-08-01T17:09:56;0.57;;;0.30;;
72335;SDS011;65062;48.446;8.834;2023-08-01T17:13:00;0.65;;;0.32;;
72335;SDS011;65062;48.446;8.834;2023-08-01T17:16:01;2.03;;;0.30;;
72335;SDS011;65062;48.446;8.834;2023-08-01T17:19:02;0.88;;;0.30;;
72335;SDS011;65062;48.446;8.834;2023-08-01T17:22:03;0.43;;;0.30;;
72335;SDS011;65062;48.446;8.834;2023-08-01T17:25:04;1.73;;;0.30;;
72335;SDS011;65062;48.446;8.834;2023-08-01T17:28:05;0.28;;;0.20;;
72335;SDS011;65062;48.446;8.834;2023-08-01T17:31:06;1.33;;;0.40;;
72335;SDS011;65062;48.446;8.834;2023-08-01T17:34:09;0.60;;;0.38;;
72335;SDS011;65062;48.446;8.834;2023-08-01T17:37:10;0.47;;;0.40;;
72335;SDS011;65062;48.446;8.834;2023-08-01T17:40:10;0.85;;;0.45;;
72335;SDS011;65062;48.446;8.834;2023-08-01T17:43:11;0.40;;;0.30;;
72335;SDS011;65062;48.446;8.834;2023-08-01T17:46:11;0.90;;;0.50;;
72335;SDS011;65062;48.446;8.834;2023-08-01T17:49:12;0.45;;;0.30;;
72335;SDS011;65062;48.446;8.834;2023-08-01T17:52:13;3.03;;;0.60;;
72335;SDS011;65062;48.446;8.834;2023-08-01T17:55:13;2.63;;;0.40;;
72335;SDS011;65062;48.446;8.834;2023-08-01T17:58:13;0.60;;;0.38;;
72335;SDS011;65062;48.446;8.834;2023-08-01T18:01:14;1.45;;;0.90;;
72335;SDS011;65062;48.446;8.834;2023-08-01T18:04:14;0.55;;;0.40;;
72335;SDS011;65062;48.446;8.834;2023-08-01T18:07:14;0.60;;;0.20;;
72335;SDS011;65062;48.446;8.834;2023-08-01T18:10:15;3.17;;;0.60;;
72335;SDS011;65062;48.446;8.834;2023-08-01T18:13:15;1.13;;;0.93;;
72335;SDS011;65062;48.446;8.834;2023-08-01T18:16:20;1.83;;;0.40;;
72335;SDS011;65062;48.446;8.834;2023-08-01T18:19:22;0.68;;;0.50;;
72335;SDS011;65062;48.446;8.834;2023-08-01T18:22:22;1.15;;;0.50;;
72335;SDS011;65062;48.446;8.834;2023-08-01T18:25:22;0.97;;;0.30;;
72335;SDS011;65062;48.446;8.834;2023-08-01T18:28:23;3.50;;;0.50;;
72335;SDS011;65062;48.446;8.834;2023-08-01T18:31:23;0.60;;;0.30;;
72335;SDS011;65062;48.446;8.834;2023-08-01T18:34:24;0.57;;;0.47;;
72335;SDS011;65062;48.446;8.834;2023-08-01T18:37:25;1.88;;;0.35;;
72335;SDS011;65062;48.446;8.834;2023-08-01T18:40:26;0.50;;;0.43;;
72335;SDS011;65062;48.446;8.834;2023-08-01T18:43:27;0.80;;;0.50;;
72335;SDS011;65062;48.446;8.834;2023-08-01T18:46:27;1.10;;;0.30;;